This is the latest recevied weather packets stored in our database for station/object SQ5NWH-11. If no packets are shown the sender has not sent any weather packets the latest 10 day(s).
| Time | Temp. | Humidity | Pressure | Rain* | Wind** | Luminosity | Snow |
|---|---|---|---|---|---|---|---|
| 1777965949 | 20.56° C | 51% | 1000 hPa | - | - | - | - |
| 1777965048 | 20° C | 51% | 1000 hPa | - | - | - | - |
| 1777964147 | 20° C | 51% | 1000 hPa | - | - | - | - |
| 1777963246 | 20° C | 51% | 1000 hPa | - | - | - | - |
| 1777962345 | 19.44° C | 52% | 1000 hPa | - | - | - | - |
| 1777961443 | 19.44° C | 51% | 1000 hPa | - | - | - | - |
| 1777960542 | 19.44° C | 50% | 1000 hPa | - | - | - | - |
| 1777959641 | 18.89° C | 51% | 1000 hPa | - | - | - | - |
| 1777958740 | 18.89° C | 52% | 1000 hPa | - | - | - | - |
| 1777957838 | 18.33° C | 51% | 1000 hPa | - | - | - | - |
| 1777956937 | 18.33° C | 49% | 1000 hPa | - | - | - | - |
| 1777956036 | 18.33° C | 49% | 1000 hPa | - | - | - | - |
| 1777955135 | 18.33° C | 49% | 1000 hPa | - | - | - | - |
| 1777954234 | 18.33° C | 48% | 1000 hPa | - | - | - | - |
| 1777943421 | 19.44° C | 47% | 1000 hPa | - | - | - | - |
| 1777940718 | 19.44° C | 47% | 1001 hPa | - | - | - | - |
| 1777929905 | 20.56° C | 43% | 1001 hPa | - | - | - | - |
| 1777928102 | 21.11° C | 42% | 1001 hPa | - | - | - | - |
| 1777922695 | 21.67° C | 39% | 1001 hPa | - | - | - | - |
| 1777918190 | 22.78° C | 37% | 1000 hPa | - | - | - | - |
| 1777916388 | 22.78° C | 37% | 1000 hPa | - | - | - | - |
| 1777915487 | 23.33° C | 37% | 1000 hPa | - | - | - | - |
| 1777913685 | 23.33° C | 36% | 1000 hPa | - | - | - | - |
| 1777912784 | 23.89° C | 35% | 1000 hPa | - | - | - | - |
| 1777909180 | 24.44° C | 32% | 1000 hPa | - | - | - | - |
* Rain since midnight (hover to see other rain measurements)
** Current wind speed in m/s (hover to see current wind gust speed)